Time;durP1;ratioP1;P1;durP2;ratioP2;P2;SDS_P1;SDS_P2;PMS_P1;PMS_P2;Temp;Humidity;BMP_temperature;BMP_pressure;BME280_temperature;BME280_humidity;BME280_pressure;Samples;Min_cycle;Max_cycle;Signal;HPM_P1;HPM_P2
2023/09/03 00:01:50;;;;;;;;;;;;;;;;;;2218795;58;1529;-23
2023/09/03 00:04:21;;;;;;;;;;;;;;;;;;2218155;66;1885;-23
2023/09/03 00:06:51;;;;;;;;;;;;;;;;;;2219632;66;2009;-23
2023/09/03 00:09:21;;;;;;;;;;;;;;;;;;2218076;66;1977;-23
2023/09/03 00:11:51;;;;;;;;;;;;;;;;;;2219123;66;2085;-23
2023/09/03 00:14:22;;;;;;;;;;;;;;;;;;2218916;66;2427;-23
2023/09/03 00:16:52;;;;;;;;;;;;;;;;;;2218601;66;2006;-23
2023/09/03 00:19:23;;;;;;;;;;;;;;;;;;2216015;66;2376;-23
2023/09/03 00:21:53;;;;;;;;;;;;;;;;;;2216440;59;1545;-23
2023/09/03 00:24:23;;;;;;;;;;;;;;;;;;2219374;66;1970;-23
2023/09/03 00:26:53;;;;;;;;;;;;;;;;;;2219027;58;2004;-23
2023/09/03 00:29:24;;;;;;;;;;;;;;;;;;2218188;58;2089;-23
2023/09/03 00:31:54;;;;;;;;;;;;;;;;;;2219400;58;2822;-23
2023/09/03 00:34:25;;;;;;;;;;;;;;;;;;2215106;58;1953;-23
2023/09/03 00:36:55;;;;;;;;;;;;;;;;;;2215711;58;1996;-23
2023/09/03 00:39:26;;;;;;;;;;;;;;;;;;2218258;66;1850;-23
2023/09/03 00:41:56;;;;;;;;;;;;;;;;;;2215853;58;1697;-23
2023/09/03 00:44:27;;;;;;;;;;;;;;;;;;2213398;58;2630;-23
2023/09/03 00:46:57;;;;;;;;;;;;;;;;;;2214607;66;2745;-23
2023/09/03 00:49:28;;;;;;;;;;;;;;;;;;2218362;58;2808;-23
2023/09/03 00:51:58;;;;;;;;;;;;;;;;;;2218400;58;2403;-23
2023/09/03 00:54:28;;;;;;;;;;;;;;;;;;2218234;58;2629;-23
2023/09/03 00:56:59;;;;;;;;;;;;;;;;;;2214446;66;2004;-23
2023/09/03 00:59:30;;;;;;;;;;;;;;;;;;2215557;66;2041;-23
2023/09/03 01:02:00;;;;;;;;;;;;;;;;;;2220210;58;1907;-23
2023/09/03 01:04:31;;;;;;;;;;;;;;;;;;2219593;66;1923;-23
2023/09/03 01:07:01;;;;;;;;;;;;;;;;;;2218699;66;2927;-23
2023/09/03 01:09:31;;;;;;;;;;;;;;;;;;2218913;66;2561;-23
2023/09/03 01:12:05;;;;;;;;;;;;;;;;;;2218650;58;2191;-23
2023/09/03 01:14:35;;;;;;;;;;;;;;;;;;2218992;66;2653;-23
2023/09/03 01:17:12;;;;;;;;;;;;;;;;;;2218008;66;1992;-23
2023/09/03 01:19:54;;;;;;;;;;;;;;;;;;2218528;66;1507;-23
2023/09/03 01:22:39;;;;;;;;;;;;;;;;;;2218271;66;2184;-23
2023/09/03 01:25:29;;;;;;;;;;;;;;;;;;2215811;66;1637;-23
2023/09/03 01:28:13;;;;;;;;;;;;;;;;;;2218630;58;1223;-23
2023/09/03 01:30:44;;;;;;;;;;;;;;;;;;2216265;58;1469;-23
2023/09/03 01:33:15;;;;;;;;;;;;;;;;;;2219210;58;1153;-23
2023/09/03 01:35:47;;;;;;;;;;;;;;;;;;2221032;66;1939;-23
2023/09/03 01:38:17;;;;;;;;;;;;;;;;;;2219555;66;1694;-23
2023/09/03 01:40:48;;;;;;;;;;;;;;;;;;2219853;66;1353;-23
2023/09/03 01:43:18;;;;;;;;;;;;;;;;;;2218767;58;1436;-23
2023/09/03 01:45:55;;;;;;;;;;;;;;;;;;2218796;58;2094;-23
2023/09/03 01:48:44;;;;;;;;;;;;;;;;;;2217308;59;2711;-23
2023/09/03 01:51:26;;;;;;;;;;;;;;;;;;2218261;58;1738;-23
2023/09/03 01:53:57;;;;;;;;;;;;;;;;;;2218732;58;2762;-23
2023/09/03 01:56:29;;;;;;;;;;;;;;;;;;2215739;66;1982;-23
2023/09/03 01:59:02;;;;;;;;;;;;;;;;;;2217860;66;1666;-23
2023/09/03 02:01:33;;;;;;;;;;;;;;;;;;2218118;58;2300;-23
2023/09/03 02:04:04;;;;;;;;;;;;;;;;;;2218061;66;1747;-23
2023/09/03 02:06:34;;;;;;;;;;;;;;;;;;2218293;66;1944;-23
2023/09/03 02:09:05;;;;;;;;;;;;;;;;;;2215473;59;1761;-23
2023/09/03 02:11:35;;;;;;;;;;;;;;;;;;2214860;58;2052;-23
2023/09/03 02:14:05;;;;;;;;;;;;;;;;;;2214662;59;1904;-23
2023/09/03 02:16:36;;;;;;;;;;;;;;;;;;2218391;66;2681;-23
2023/09/03 02:19:06;;;;;;;;;;;;;;;;;;2214782;58;1841;-23
2023/09/03 02:21:36;;;;;;;;;;;;;;;;;;2218509;66;2024;-23
2023/09/03 02:24:06;;;;;;;;;;;;;;;;;;2214669;66;2354;-23
2023/09/03 02:26:41;;;;;;;;;;;;;;;;;;2217957;58;2717;-23
2023/09/03 02:29:12;;;;;;;;;;;;;;;;;;2217932;66;2244;-23
2023/09/03 02:31:43;;;;;;;;;;;;;;;;;;2218628;58;1804;-23
2023/09/03 02:34:14;;;;;;;;;;;;;;;;;;2218549;58;1974;-23
2023/09/03 02:36:45;;;;;;;;;;;;;;;;;;2215917;66;2035;-23
2023/09/03 02:39:15;;;;;;;;;;;;;;;;;;2216926;58;1790;-23
2023/09/03 02:41:45;;;;;;;;;;;;;;;;;;2218355;58;1788;-23
2023/09/03 02:44:15;;;;;;;;;;;;;;;;;;2219964;58;1883;-23
2023/09/03 02:46:46;;;;;;;;;;;;;;;;;;2218030;58;1776;-23
2023/09/03 02:49:16;;;;;;;;;;;;;;;;;;2217177;58;2551;-23
2023/09/03 02:51:46;;;;;;;;;;;;;;;;;;2218976;58;2744;-23
2023/09/03 02:54:16;;;;;;;;;;;;;;;;;;2217792;58;2488;-23
2023/09/03 02:56:47;;;;;;;;;;;;;;;;;;2218702;58;1941;-23
2023/09/03 02:59:17;;;;;;;;;;;;;;;;;;2217599;66;2474;-23
2023/09/03 03:01:50;;;;;;;;;;;;;;;;;;2218684;58;2578;-23
2023/09/03 03:04:21;;;;;;;;;;;;;;;;;;2217624;66;1846;-23
2023/09/03 03:06:52;;;;;;;;;;;;;;;;;;2218035;66;1792;-23
2023/09/03 03:09:23;;;;;;;;;;;;;;;;;;2217754;66;1932;-23
2023/09/03 03:11:53;;;;;;;;;;;;;;;;;;2219588;58;1786;-23
2023/09/03 03:14:24;;;;;;;;;;;;;;;;;;2219386;66;1774;-23
2023/09/03 03:16:54;;;;;;;;;;;;;;;;;;2218478;66;1993;-23
2023/09/03 03:19:24;;;;;;;;;;;;;;;;;;2217553;66;2273;-23
2023/09/03 03:21:54;;;;;;;;;;;;;;;;;;2217966;66;1715;-23
2023/09/03 03:24:24;;;;;;;;;;;;;;;;;;2218349;66;1921;-23
2023/09/03 03:26:55;;;;;;;;;;;;;;;;;;2214943;58;2073;-23
2023/09/03 03:29:25;;;;;;;;;;;;;;;;;;2218997;58;2035;-23
2023/09/03 03:31:55;;;;;;;;;;;;;;;;;;2219670;66;2963;-23
2023/09/03 03:34:25;;;;;;;;;;;;;;;;;;2218156;66;2095;-23
2023/09/03 03:36:55;;;;;;;;;;;;;;;;;;2219207;58;2004;-23
2023/09/03 03:39:29;;;;;;;;;;;;;;;;;;2218784;66;1745;-23
2023/09/03 03:41:59;;;;;;;;;;;;;;;;;;2219020;58;1487;-23
2023/09/03 03:44:30;;;;;;;;;;;;;;;;;;2218405;58;2673;-23
2023/09/03 03:47:01;;;;;;;;;;;;;;;;;;2220150;66;1987;-23
2023/09/03 03:49:31;;;;;;;;;;;;;;;;;;2218102;66;2498;-23
2023/09/03 03:52:01;;;;;;;;;;;;;;;;;;2218442;58;2502;-23
2023/09/03 03:54:32;;;;;;;;;;;;;;;;;;2216192;66;2335;-23
2023/09/03 03:57:03;;;;;;;;;;;;;;;;;;2215625;59;2316;-23
2023/09/03 03:59:33;;;;;;;;;;;;;;;;;;2218702;66;2218;-23
2023/09/03 04:02:04;;;;;;;;;;;;;;;;;;2215993;58;1695;-23
2023/09/03 04:04:34;;;;;;;;;;;;;;;;;;2214990;66;2257;-23
2023/09/03 04:07:05;;;;;;;;;;;;;;;;;;2215678;66;2668;-23
2023/09/03 04:09:37;;;;;;;;;;;;;;;;;;2215797;59;2668;-23
2023/09/03 04:12:07;;;;;;;;;;;;;;;;;;2214673;58;1822;-23
2023/09/03 04:14:37;;;;;;;;;;;;;;;;;;2218659;66;1735;-23
2023/09/03 04:17:08;;;;;;;;;;;;;;;;;;2218203;66;1963;-23
2023/09/03 04:19:38;;;;;;;;;;;;;;;;;;2218420;66;1990;-23
2023/09/03 04:22:09;;;;;;;;;;;;;;;;;;2215926;66;1982;-23
2023/09/03 04:24:39;;;;;;;;;;;;;;;;;;2216167;66;1932;-23
2023/09/03 04:27:09;;;;;;;;;;;;;;;;;;2218454;58;1507;-23
2023/09/03 04:29:39;;;;;;;;;;;;;;;;;;2218638;58;1873;-23
2023/09/03 04:32:10;;;;;;;;;;;;;;;;;;2218259;58;1904;-23
2023/09/03 04:34:41;;;;;;;;;;;;;;;;;;2218442;66;1991;-23
2023/09/03 04:37:11;;;;;;;;;;;;;;;;;;2221029;58;3107;-23
2023/09/03 04:39:41;;;;;;;;;;;;;;;;;;2218842;66;2234;-23
2023/09/03 04:42:11;;;;;;;;;;;;;;;;;;2218280;66;2846;-23
2023/09/03 04:44:42;;;;;;;;;;;;;;;;;;2219108;58;3003;-23
2023/09/03 04:47:12;;;;;;;;;;;;;;;;;;2215378;66;1842;-23
2023/09/03 04:49:43;;;;;;;;;;;;;;;;;;2218896;58;2036;-23
2023/09/03 04:52:13;;;;;;;;;;;;;;;;;;2217742;58;2536;-23
2023/09/03 04:54:43;;;;;;;;;;;;;;;;;;2218777;66;1785;-23
2023/09/03 04:57:14;;;;;;;;;;;;;;;;;;2219157;58;2003;-23
2023/09/03 04:59:44;;;;;;;;;;;;;;;;;;2218681;58;2226;-23
2023/09/03 05:02:14;;;;;;;;;;;;;;;;;;2219058;58;1836;-23
2023/09/03 05:04:44;;;;;;;;;;;;;;;;;;2218062;66;1819;-23
2023/09/03 05:07:14;;;;;;;;;;;;;;;;;;2218940;66;2423;-23
2023/09/03 05:09:45;;;;;;;;;;;;;;;;;;2218683;66;2577;-23
2023/09/03 05:12:15;;;;;;;;;;;;;;;;;;2219129;58;1524;-23
2023/09/03 05:14:45;;;;;;;;;;;;;;;;;;2218173;66;2007;-23
2023/09/03 05:17:20;;;;;;;;;;;;;;;;;;2212272;66;2215;-23
2023/09/03 05:19:50;;;;;;;;;;;;;;;;;;2215819;66;1731;-23
2023/09/03 05:22:20;;;;;;;;;;;;;;;;;;2219536;58;1939;-23
2023/09/03 05:24:51;;;;;;;;;;;;;;;;;;2219480;66;1448;-23
2023/09/03 05:27:21;;;;;;;;;;;;;;;;;;2218369;58;1335;-23
2023/09/03 05:29:51;;;;;;;;;;;;;;;;;;2219236;58;2080;-23
2023/09/03 05:32:22;;;;;;;;;;;;;;;;;;2215299;58;1825;-23
2023/09/03 05:34:52;;;;;;;;;;;;;;;;;;2218562;66;1365;-23
2023/09/03 05:37:23;;;;;;;;;;;;;;;;;;2218067;59;1984;-24
2023/09/03 05:39:53;;;;;;;;;;;;;;;;;;2218600;66;1355;-24
2023/09/03 05:42:23;;;;;;;;;;;;;;;;;;2218128;59;1737;-24
2023/09/03 05:44:55;;;;;;;;;;;;;;;;;;2218532;58;1508;-24
2023/09/03 05:47:25;;;;;;;;;;;;;;;;;;2217928;66;2086;-23
2023/09/03 05:49:56;;;;;;;;;;;;;;;;;;2218120;58;1479;-23
2023/09/03 05:52:30;;;;;;;;;;;;;;;;;;2217628;58;2994;-24
2023/09/03 05:55:00;;;;;;;;;;;;;;;;;;2217227;66;3541;-24
2023/09/03 05:57:30;;;;;;;;;;;;;;;;;;2218223;58;1940;-23
2023/09/03 06:00:00;;;;;;;;;;;;;;;;;;2214961;58;1763;-24
2023/09/03 06:02:33;;;;;;;;;;;;;;;;;;2218204;66;2601;-23
2023/09/03 06:05:04;;;;;;;;;;;;;;;;;;2218430;66;1482;-23
2023/09/03 06:07:34;;;;;;;;;;;;;;;;;;2217914;66;1472;-24
2023/09/03 06:10:05;;;;;;;;;;;;;;;;;;2218385;66;2767;-23
2023/09/03 06:12:35;;;;;;;;;;;;;;;;;;2218036;58;1810;-24
2023/09/03 06:15:06;;;;;;;;;;;;;;;;;;2219016;66;2076;-24
2023/09/03 06:17:36;;;;;;;;;;;;;;;;;;2218089;59;1998;-24
2023/09/03 06:20:07;;;;;;;;;;;;;;;;;;2218249;66;2527;-24
2023/09/03 06:22:38;;;;;;;;;;;;;;;;;;2218379;66;2111;-24
2023/09/03 06:25:08;;;;;;;;;;;;;;;;;;2215346;66;1958;-24
2023/09/03 06:27:38;;;;;;;;;;;;;;;;;;2221502;53;3637;-18
2023/09/03 06:30:09;;;;;;;;;;;;;;;;;;2220126;66;2594;-18
2023/09/03 06:32:39;;;;;;;;;;;;;;;;;;2220800;58;2022;-18
2023/09/03 06:35:09;;;;;;;;;;;;;;;;;;2216183;66;1485;-18
2023/09/03 06:37:39;;;;;;;;;;;;;;;;;;2217058;59;1961;-18
2023/09/03 06:40:13;;;;;;;;;;;;;;;;;;2217050;66;1734;-18
2023/09/03 06:42:43;;;;;;;;;;;;;;;;;;2217251;66;1989;-18
2023/09/03 06:45:13;;;;;;;;;;;;;;;;;;2213238;59;1712;-18
2023/09/03 06:47:44;;;;;;;;;;;;;;;;;;2217129;66;1767;-18
2023/09/03 06:50:15;;;;;;;;;;;;;;;;;;2216583;58;2764;-18
2023/09/03 06:52:46;;;;;;;;;;;;;;;;;;2217272;58;2120;-19
2023/09/03 06:55:17;;;;;;;;;;;;;;;;;;2216700;59;2270;-18
2023/09/03 06:57:47;;;;;;;;;;;;;;;;;;2218301;58;1967;-18
2023/09/03 07:00:17;;;;;;;;;;;;;;;;;;2217701;58;1361;-19
2023/09/03 07:02:47;;;;;;;;;;;;;;;;;;2217638;66;1405;-19
2023/09/03 07:05:18;;;;;;;;;;;;;;;;;;2217451;66;1467;-19
2023/09/03 07:07:48;;;;;;;;;;;;;;;;;;2218275;66;1667;-19
2023/09/03 07:10:18;;;;;;;;;;;;;;;;;;2218558;66;1287;-19
2023/09/03 07:12:48;;;;;;;;;;;;;;;;;;2218626;66;1383;-19
2023/09/03 07:15:19;;;;;;;;;;;;;;;;;;2217605;66;1497;-19
2023/09/03 07:17:49;;;;;;;;;;;;;;;;;;2218009;66;2007;-19
2023/09/03 07:20:19;;;;;;;;;;;;;;;;;;2218151;66;1329;-19
2023/09/03 07:22:49;;;;;;;;;;;;;;;;;;2217788;66;1920;-19
2023/09/03 07:25:20;;;;;;;;;;;;;;;;;;2218353;66;1212;-19
2023/09/03 07:27:50;;;;;;;;;;;;;;;;;;2215471;58;2093;-19
2023/09/03 07:30:21;;;;;;;;;;;;;;;;;;2217617;58;1762;-19
2023/09/03 07:32:51;;;;;;;;;;;;;;;;;;2215218;59;1381;-19
2023/09/03 07:35:21;;;;;;;;;;;;;;;;;;2218242;66;1587;-19
2023/09/03 07:37:54;;;;;;;;;;;;;;;;;;2217136;66;1959;-19
2023/09/03 07:40:24;;;;;;;;;;;;;;;;;;2217234;66;1268;-19
2023/09/03 07:42:54;;;;;;;;;;;;;;;;;;2213469;66;1630;-20
2023/09/03 07:45:25;;;;;;;;;;;;;;;;;;2217408;58;1411;-19
2023/09/03 07:47:58;;;;;;;;;;;;;;;;;;2217723;66;1386;-20
2023/09/03 07:50:31;;;;;;;;;;;;;;;;;;2216719;59;1434;-20
2023/09/03 07:53:01;;;;;;;;;;;;;;;;;;2216478;58;2358;-19
2023/09/03 07:55:31;;;;;;;;;;;;;;;;;;2215604;58;2667;-19
2023/09/03 07:58:01;;;;;;;;;;;;;;;;;;2213564;66;1986;-20
2023/09/03 08:00:32;;;;;;;;;;;;;;;;;;2213358;59;2854;-21
2023/09/03 08:03:02;;;;;;;;;;;;;;;;;;2216807;66;2078;-21
2023/09/03 08:05:33;;;;;;;;;;;;;;;;;;2217837;66;1712;-21
2023/09/03 08:08:03;;;;;;;;;;;;;;;;;;2214059;59;1808;-21
2023/09/03 08:10:33;;;;;;;;;;;;;;;;;;2213232;66;1630;-21
2023/09/03 08:13:03;;;;;;;;;;;;;;;;;;2216567;58;1734;-22
2023/09/03 08:15:34;;;;;;;;;;;;;;;;;;2214274;66;1236;-21
2023/09/03 08:18:04;;;;;;;;;;;;;;;;;;2216560;66;1996;-21
2023/09/03 08:20:34;;;;;;;;;;;;;;;;;;2217860;66;1458;-21
2023/09/03 08:23:05;;;;;;;;;;;;;;;;;;2217714;66;1414;-21
2023/09/03 08:25:35;;;;;;;;;;;;;;;;;;2216514;66;1395;-21
2023/09/03 08:28:07;;;;;;;;;;;;;;;;;;2216002;58;1453;-21
2023/09/03 08:30:37;;;;;;;;;;;;;;;;;;2218074;58;1301;-21
2023/09/03 08:33:07;;;;;;;;;;;;;;;;;;2218185;58;2373;-21
2023/09/03 08:35:38;;;;;;;;;;;;;;;;;;2216948;66;1108;-21
2023/09/03 08:38:08;;;;;;;;;;;;;;;;;;2217662;66;1937;-21
2023/09/03 08:40:40;;;;;;;;;;;;;;;;;;2217732;66;1647;-21
2023/09/03 08:43:17;;;;;;;;;;;;;;;;;;2216950;66;1221;-21
2023/09/03 08:45:51;;;;;;;;;;;;;;;;;;2216895;58;1488;-19
2023/09/03 08:48:22;;;;;;;;;;;;;;;;;;2217211;66;2215;-19
2023/09/03 08:50:55;;;;;;;;;;;;;;;;;;2213752;58;1419;-19
2023/09/03 08:53:26;;;;;;;;;;;;;;;;;;2217748;58;1283;-19
2023/09/03 08:55:57;;;;;;;;;;;;;;;;;;2212713;59;2995;-19
2023/09/03 08:58:27;;;;;;;;;;;;;;;;;;2218262;66;1679;-19
2023/09/03 09:00:57;;;;;;;;;;;;;;;;;;2217817;58;2789;-19
2023/09/03 09:03:28;;;;;;;;;;;;;;;;;;2218335;66;1793;-19
2023/09/03 09:05:58;;;;;;;;;;;;;;;;;;2213349;59;2440;-19
2023/09/03 09:08:29;;;;;;;;;;;;;;;;;;2212297;66;1769;-19
2023/09/03 09:11:03;;;;;;;;;;;;;;;;;;2216679;66;1742;-19
2023/09/03 09:13:34;;;;;;;;;;;;;;;;;;2216658;58;1654;-19
2023/09/03 09:16:04;;;;;;;;;;;;;;;;;;2215689;66;2004;-19
2023/09/03 09:18:35;;;;;;;;;;;;;;;;;;2215976;66;1404;-19
2023/09/03 09:21:05;;;;;;;;;;;;;;;;;;2212064;66;1429;-19
2023/09/03 09:23:35;;;;;;;;;;;;;;;;;;2216284;66;1848;-19
2023/09/03 09:26:14;;;;;;;;;;;;;;;;;;2215215;66;1685;-19
2023/09/03 09:29:03;;;;;;;;;;;;;;;;;;2213670;59;1442;-20
2023/09/03 09:31:34;;;;;;;;;;;;;;;;;;2216119;58;1615;-19
2023/09/03 09:34:18;;;;;;;;;;;;;;;;;;2216711;58;1601;-19
2023/09/03 09:36:54;;;;;;;;;;;;;;;;;;2217175;66;1923;-20
2023/09/03 09:39:24;;;;;;;;;;;;;;;;;;2215874;66;1190;-20
2023/09/03 09:42:05;;;;;;;;;;;;;;;;;;2212013;62;1428;-20
2023/09/03 09:44:36;;;;;;;;;;;;;;;;;;2212856;58;1514;-20
2023/09/03 09:47:16;;;;;;;;;;;;;;;;;;2216642;66;2053;-20
2023/09/03 09:49:47;;;;;;;;;;;;;;;;;;2216903;58;1635;-20
2023/09/03 09:52:18;;;;;;;;;;;;;;;;;;2216633;58;1426;-20
2023/09/03 09:54:48;;;;;;;;;;;;;;;;;;2215598;66;2199;-20
2023/09/03 09:57:22;;;;;;;;;;;;;;;;;;2214743;58;2675;-20
2023/09/03 09:59:53;;;;;;;;;;;;;;;;;;2213279;59;2543;-20
2023/09/03 10:02:23;;;;;;;;;;;;;;;;;;2215437;66;1795;-22
2023/09/03 10:04:56;;;;;;;;;;;;;;;;;;2215527;66;1768;-22
2023/09/03 10:07:27;;;;;;;;;;;;;;;;;;2216125;66;1882;-22
2023/09/03 10:09:57;;;;;;;;;;;;;;;;;;2212493;59;1894;-22
2023/09/03 10:12:27;;;;;;;;;;;;;;;;;;2216324;66;1767;-22
2023/09/03 10:14:57;;;;;;;;;;;;;;;;;;2216367;66;2344;-22
2023/09/03 10:17:28;;;;;;;;;;;;;;;;;;2216649;66;1933;-22
2023/09/03 10:20:04;;;;;;;;;;;;;;;;;;2216171;66;1919;-22
2023/09/03 10:22:36;;;;;;;;;;;;;;;;;;2213551;66;1930;-22
2023/09/03 10:25:14;;;;;;;;;;;;;;;;;;2216529;66;1862;-22
2023/09/03 10:27:47;;;;;;;;;;;;;;;;;;2215745;58;1910;-22
2023/09/03 10:30:23;;;;;;;;;;;;;;;;;;2216578;66;1840;-22
2023/09/03 10:32:53;;;;;;;;;;;;;;;;;;2213015;59;1885;-22
2023/09/03 10:35:24;;;;;;;;;;;;;;;;;;2215804;66;1872;-22
2023/09/03 10:37:54;;;;;;;;;;;;;;;;;;2216245;58;2402;-22
2023/09/03 10:40:32;;;;;;;;;;;;;;;;;;2213141;59;1770;-22
2023/09/03 10:43:14;;;;;;;;;;;;;;;;;;2215841;66;2723;-22
2023/09/03 10:46:02;;;;;;;;;;;;;;;;;;2216668;58;2584;-22
2023/09/03 10:48:34;;;;;;;;;;;;;;;;;;2217125;66;1875;-22
2023/09/03 10:51:04;;;;;;;;;;;;;;;;;;2215310;58;1930;-22
2023/09/03 10:53:38;;;;;;;;;;;;;;;;;;2215444;58;1795;-22
2023/09/03 10:56:13;;;;;;;;;;;;;;;;;;2215484;58;2212;-22
2023/09/03 10:58:56;;;;;;;;;;;;;;;;;;2214477;59;2304;-22
2023/09/03 11:01:33;;;;;;;;;;;;;;;;;;2212827;59;1568;-22
2023/09/03 11:04:03;;;;;;;;;;;;;;;;;;2215218;66;1913;-22
2023/09/03 11:06:34;;;;;;;;;;;;;;;;;;2212589;66;1587;-22
2023/09/03 11:09:05;;;;;;;;;;;;;;;;;;2211907;66;1643;-22
2023/09/03 11:11:38;;;;;;;;;;;;;;;;;;2212844;66;1226;-22
2023/09/03 11:14:10;;;;;;;;;;;;;;;;;;2212233;66;1682;-22
2023/09/03 11:16:40;;;;;;;;;;;;;;;;;;2215918;66;1929;-22
2023/09/03 11:19:10;;;;;;;;;;;;;;;;;;2212744;66;1302;-22
2023/09/03 11:21:40;;;;;;;;;;;;;;;;;;2216373;66;1368;-22
2023/09/03 11:24:16;;;;;;;;;;;;;;;;;;2212153;66;1299;-22
2023/09/03 11:27:02;;;;;;;;;;;;;;;;;;2215957;59;1953;-22
2023/09/03 11:29:33;;;;;;;;;;;;;;;;;;2215651;58;1412;-22
2023/09/03 11:32:03;;;;;;;;;;;;;;;;;;2212657;58;1703;-22
2023/09/03 11:34:33;;;;;;;;;;;;;;;;;;2215183;66;2480;-21
2023/09/03 11:37:04;;;;;;;;;;;;;;;;;;2210866;59;1928;-22
2023/09/03 11:39:34;;;;;;;;;;;;;;;;;;2214956;59;1297;-22
2023/09/03 11:42:04;;;;;;;;;;;;;;;;;;2211951;66;1653;-22
2023/09/03 11:44:34;;;;;;;;;;;;;;;;;;2209573;58;1684;-22
2023/09/03 11:47:05;;;;;;;;;;;;;;;;;;2214460;66;2150;-22
2023/09/03 11:49:35;;;;;;;;;;;;;;;;;;2215486;58;1810;-22
2023/09/03 11:52:12;;;;;;;;;;;;;;;;;;2212470;58;1893;-22
2023/09/03 11:54:45;;;;;;;;;;;;;;;;;;2214011;66;1277;-21
2023/09/03 11:57:16;;;;;;;;;;;;;;;;;;2212206;59;2766;-22
2023/09/03 11:59:47;;;;;;;;;;;;;;;;;;2212942;58;3079;-22
2023/09/03 12:02:17;;;;;;;;;;;;;;;;;;2215902;66;1888;-34
2023/09/03 12:04:50;;;;;;;;;;;;;;;;;;2216699;66;2130;-22
2023/09/03 12:07:21;;;;;;;;;;;;;;;;;;2215760;66;1851;-22
2023/09/03 12:09:51;;;;;;;;;;;;;;;;;;2216442;66;2703;-22
2023/09/03 12:12:21;;;;;;;;;;;;;;;;;;2212078;59;1848;-22
2023/09/03 12:14:52;;;;;;;;;;;;;;;;;;2213430;59;1957;-22
2023/09/03 12:17:26;;;;;;;;;;;;;;;;;;2215193;66;1939;-21
2023/09/03 12:19:57;;;;;;;;;;;;;;;;;;2216419;66;1897;-22
2023/09/03 12:22:28;;;;;;;;;;;;;;;;;;2214238;66;1737;-22
2023/09/03 12:25:03;;;;;;;;;;;;;;;;;;2213559;66;1813;-22
2023/09/03 12:27:48;;;;;;;;;;;;;;;;;;2217203;58;1379;-22
2023/09/03 12:30:19;;;;;;;;;;;;;;;;;;2216252;66;1626;-22
2023/09/03 12:32:53;;;;;;;;;;;;;;;;;;2217190;58;1797;-22
2023/09/03 12:35:23;;;;;;;;;;;;;;;;;;2216180;66;1136;-22
2023/09/03 12:37:58;;;;;;;;;;;;;;;;;;2215606;58;1933;-22
2023/09/03 12:40:29;;;;;;;;;;;;;;;;;;2217201;66;1720;-22
2023/09/03 12:42:59;;;;;;;;;;;;;;;;;;2217672;59;1667;-22
2023/09/03 12:45:29;;;;;;;;;;;;;;;;;;2217082;66;1629;-22
2023/09/03 12:47:59;;;;;;;;;;;;;;;;;;2216428;66;1326;-21
2023/09/03 12:50:29;;;;;;;;;;;;;;;;;;2216876;66;1397;-21
2023/09/03 12:53:00;;;;;;;;;;;;;;;;;;2216591;58;1491;-22
2023/09/03 12:55:30;;;;;;;;;;;;;;;;;;2217247;58;1362;-21
2023/09/03 12:58:00;;;;;;;;;;;;;;;;;;2212997;66;2696;-21
2023/09/03 13:00:30;;;;;;;;;;;;;;;;;;2215992;58;2177;-22
2023/09/03 13:03:01;;;;;;;;;;;;;;;;;;2213722;66;1817;-21
2023/09/03 13:05:31;;;;;;;;;;;;;;;;;;2212649;66;1517;-22
2023/09/03 13:08:01;;;;;;;;;;;;;;;;;;2216429;66;2004;-21
2023/09/03 13:10:32;;;;;;;;;;;;;;;;;;2216794;66;1970;-21
2023/09/03 13:13:02;;;;;;;;;;;;;;;;;;2216396;58;1547;-22
2023/09/03 13:15:32;;;;;;;;;;;;;;;;;;2212688;66;1695;-22
2023/09/03 13:18:03;;;;;;;;;;;;;;;;;;2215593;66;1978;-22
2023/09/03 13:20:34;;;;;;;;;;;;;;;;;;2216998;66;1300;-21
2023/09/03 13:23:04;;;;;;;;;;;;;;;;;;2215939;66;1511;-21
2023/09/03 13:25:34;;;;;;;;;;;;;;;;;;2215579;66;2052;-21
2023/09/03 13:28:05;;;;;;;;;;;;;;;;;;2215100;58;1711;-21
2023/09/03 13:30:36;;;;;;;;;;;;;;;;;;2215792;66;2148;-21
2023/09/03 13:33:07;;;;;;;;;;;;;;;;;;2215814;59;1804;-21
2023/09/03 13:35:40;;;;;;;;;;;;;;;;;;2215932;66;1632;-21
2023/09/03 13:38:15;;;;;;;;;;;;;;;;;;2215415;58;1927;-21
2023/09/03 13:40:45;;;;;;;;;;;;;;;;;;2211681;66;1326;-21
2023/09/03 13:43:16;;;;;;;;;;;;;;;;;;2215838;66;1629;-19
2023/09/03 13:45:52;;;;;;;;;;;;;;;;;;2216298;58;1448;-19
2023/09/03 13:48:23;;;;;;;;;;;;;;;;;;2215653;66;2026;-19
2023/09/03 13:50:54;;;;;;;;;;;;;;;;;;2216127;58;1383;-19
2023/09/03 13:53:24;;;;;;;;;;;;;;;;;;2216118;58;1710;-19
2023/09/03 13:56:01;;;;;;;;;;;;;;;;;;2213547;66;2212;-19
2023/09/03 13:58:31;;;;;;;;;;;;;;;;;;2214928;59;1348;-21
2023/09/03 14:01:08;;;;;;;;;;;;;;;;;;2214119;58;3033;-21
2023/09/03 14:03:41;;;;;;;;;;;;;;;;;;2215845;66;1576;-21
2023/09/03 14:06:12;;;;;;;;;;;;;;;;;;2214997;66;2284;-21
2023/09/03 14:08:42;;;;;;;;;;;;;;;;;;2215899;66;1732;-21
2023/09/03 14:11:12;;;;;;;;;;;;;;;;;;2215591;58;1942;-21
2023/09/03 14:13:47;;;;;;;;;;;;;;;;;;2215933;58;2496;-21
2023/09/03 14:16:17;;;;;;;;;;;;;;;;;;2214714;59;1999;-21
2023/09/03 14:18:49;;;;;;;;;;;;;;;;;;2213227;66;1283;-21
2023/09/03 14:21:20;;;;;;;;;;;;;;;;;;2215185;66;1251;-21
2023/09/03 14:23:50;;;;;;;;;;;;;;;;;;2212946;66;1530;-21
2023/09/03 14:26:20;;;;;;;;;;;;;;;;;;2216364;58;1638;-21
2023/09/03 14:28:54;;;;;;;;;;;;;;;;;;2216660;58;1369;-21
2023/09/03 14:31:24;;;;;;;;;;;;;;;;;;2217054;59;1372;-21
2023/09/03 14:33:54;;;;;;;;;;;;;;;;;;2217624;58;1764;-21
2023/09/03 14:36:24;;;;;;;;;;;;;;;;;;2216214;66;1916;-21
2023/09/03 14:38:55;;;;;;;;;;;;;;;;;;2215743;58;1689;-21
2023/09/03 14:41:25;;;;;;;;;;;;;;;;;;2216864;66;1745;-22
2023/09/03 14:43:55;;;;;;;;;;;;;;;;;;2216905;66;1869;-21
2023/09/03 14:46:26;;;;;;;;;;;;;;;;;;2215828;58;1861;-21
2023/09/03 14:48:56;;;;;;;;;;;;;;;;;;2213470;66;1330;-21
2023/09/03 14:51:26;;;;;;;;;;;;;;;;;;2216607;58;1187;-21
2023/09/03 14:53:56;;;;;;;;;;;;;;;;;;2213677;59;1845;-21
2023/09/03 14:56:26;;;;;;;;;;;;;;;;;;2215405;59;1986;-21
2023/09/03 14:59:00;;;;;;;;;;;;;;;;;;2213218;66;1928;-21
2023/09/03 15:01:31;;;;;;;;;;;;;;;;;;2215592;58;2683;-21
2023/09/03 15:04:01;;;;;;;;;;;;;;;;;;2215443;59;2507;-22
2023/09/03 15:06:31;;;;;;;;;;;;;;;;;;2215753;66;1521;-21
2023/09/03 15:09:02;;;;;;;;;;;;;;;;;;2216019;66;2638;-22
2023/09/03 15:11:32;;;;;;;;;;;;;;;;;;2212560;59;2362;-21
2023/09/03 15:14:05;;;;;;;;;;;;;;;;;;2215663;66;1810;-21
2023/09/03 15:16:38;;;;;;;;;;;;;;;;;;2215680;66;2001;-21
2023/09/03 15:19:09;;;;;;;;;;;;;;;;;;2215599;66;1781;-21
2023/09/03 15:21:39;;;;;;;;;;;;;;;;;;2216255;59;1765;-21
2023/09/03 15:24:10;;;;;;;;;;;;;;;;;;2212705;66;2154;-21
2023/09/03 15:26:40;;;;;;;;;;;;;;;;;;2213778;59;2030;-21
2023/09/03 15:29:11;;;;;;;;;;;;;;;;;;2216395;58;1782;-21
2023/09/03 15:31:41;;;;;;;;;;;;;;;;;;2210061;59;1824;-21
2023/09/03 15:34:11;;;;;;;;;;;;;;;;;;2212298;59;1723;-21
2023/09/03 15:36:41;;;;;;;;;;;;;;;;;;2217702;66;1917;-21
2023/09/03 15:39:15;;;;;;;;;;;;;;;;;;2217041;58;1950;-21
2023/09/03 15:41:45;;;;;;;;;;;;;;;;;;2216951;66;1261;-21
2023/09/03 15:44:16;;;;;;;;;;;;;;;;;;2216714;66;2208;-19
2023/09/03 15:46:47;;;;;;;;;;;;;;;;;;2217035;58;1695;-19
2023/09/03 15:49:17;;;;;;;;;;;;;;;;;;2213155;58;1391;-19
2023/09/03 15:51:47;;;;;;;;;;;;;;;;;;2217302;58;1457;-19
2023/09/03 15:54:18;;;;;;;;;;;;;;;;;;2211736;59;1338;-19
2023/09/03 15:56:54;;;;;;;;;;;;;;;;;;2212353;59;2373;-19
2023/09/03 15:59:25;;;;;;;;;;;;;;;;;;2215811;66;1506;-19
2023/09/03 16:01:57;;;;;;;;;;;;;;;;;;2215696;58;2133;-19
2023/09/03 16:04:27;;;;;;;;;;;;;;;;;;2212720;59;2101;-19
2023/09/03 16:06:57;;;;;;;;;;;;;;;;;;2215218;66;1584;-19
2023/09/03 16:09:29;;;;;;;;;;;;;;;;;;2215106;59;1969;-19
2023/09/03 16:12:00;;;;;;;;;;;;;;;;;;2215664;58;1887;-19
2023/09/03 16:14:30;;;;;;;;;;;;;;;;;;2215864;66;1779;-19
2023/09/03 16:17:00;;;;;;;;;;;;;;;;;;2215678;59;1928;-19
2023/09/03 16:19:30;;;;;;;;;;;;;;;;;;2216047;59;1723;-19
2023/09/03 16:22:00;;;;;;;;;;;;;;;;;;2213607;66;2375;-19
2023/09/03 16:24:32;;;;;;;;;;;;;;;;;;2216796;66;1740;-19
2023/09/03 16:27:03;;;;;;;;;;;;;;;;;;2216349;58;1756;-19
2023/09/03 16:29:33;;;;;;;;;;;;;;;;;;2212642;59;1874;-19
2023/09/03 16:32:04;;;;;;;;;;;;;;;;;;2213517;58;1817;-19
2023/09/03 16:34:35;;;;;;;;;;;;;;;;;;2212959;66;2085;-19
2023/09/03 16:37:06;;;;;;;;;;;;;;;;;;2212748;58;2057;-21
2023/09/03 16:39:36;;;;;;;;;;;;;;;;;;2214937;58;2365;-21
2023/09/03 16:42:06;;;;;;;;;;;;;;;;;;2213226;59;2041;-21
2023/09/03 16:44:36;;;;;;;;;;;;;;;;;;2216399;58;2187;-21
2023/09/03 16:47:07;;;;;;;;;;;;;;;;;;2209719;59;1753;-21
2023/09/03 16:49:38;;;;;;;;;;;;;;;;;;2214632;66;1994;-21
2023/09/03 16:52:09;;;;;;;;;;;;;;;;;;2215973;58;1867;-22
2023/09/03 16:54:39;;;;;;;;;;;;;;;;;;2216522;66;1473;-21
2023/09/03 16:57:09;;;;;;;;;;;;;;;;;;2216622;58;2124;-22
2023/09/03 16:59:40;;;;;;;;;;;;;;;;;;2217105;66;1750;-21
2023/09/03 17:02:12;;;;;;;;;;;;;;;;;;2215352;58;2314;-21
2023/09/03 17:04:42;;;;;;;;;;;;;;;;;;2212929;59;2659;-21
2023/09/03 17:07:12;;;;;;;;;;;;;;;;;;2216462;66;2875;-21
2023/09/03 17:09:42;;;;;;;;;;;;;;;;;;2217795;66;2020;-21
2023/09/03 17:12:15;;;;;;;;;;;;;;;;;;2216192;66;2576;-21
2023/09/03 17:14:45;;;;;;;;;;;;;;;;;;2217193;66;1468;-21
2023/09/03 17:17:16;;;;;;;;;;;;;;;;;;2216794;66;1924;-21
2023/09/03 17:19:46;;;;;;;;;;;;;;;;;;2217508;66;2024;-21
2023/09/03 17:22:16;;;;;;;;;;;;;;;;;;2216635;66;1800;-21
2023/09/03 17:24:48;;;;;;;;;;;;;;;;;;2213648;66;2008;-21
2023/09/03 17:27:18;;;;;;;;;;;;;;;;;;2215579;59;1761;-21
2023/09/03 17:29:48;;;;;;;;;;;;;;;;;;2215573;59;1782;-21
2023/09/03 17:32:21;;;;;;;;;;;;;;;;;;2213971;58;1989;-21